createdAt,value
2017-05-13T00:01:48.661Z,18.16
2017-05-13T00:04:17.951Z,17.58
2017-05-13T00:06:47.032Z,19.02
2017-05-13T00:09:16.810Z,18.10
2017-05-13T00:11:46.159Z,18.18
2017-05-13T00:14:15.205Z,19.18
2017-05-13T00:16:44.283Z,18.70
2017-05-13T00:19:13.362Z,19.08
2017-05-13T00:21:42.427Z,19.26
2017-05-13T00:24:12.256Z,17.02
2017-05-13T00:26:41.309Z,18.86
2017-05-13T00:29:10.872Z,18.70
2017-05-13T00:31:40.069Z,17.32
2017-05-13T00:34:09.152Z,19.94
2017-05-13T00:36:38.205Z,16.54
2017-05-13T00:39:07.296Z,17.54
2017-05-13T00:41:36.339Z,17.74
2017-05-13T00:44:05.419Z,17.30
2017-05-13T00:46:35.212Z,15.46
2017-05-13T00:49:04.314Z,16.96
2017-05-13T00:51:33.361Z,18.20
2017-05-13T00:54:02.423Z,15.62
2017-05-13T00:56:32.247Z,14.48
2017-05-13T00:59:01.300Z,18.52
2017-05-13T01:01:30.381Z,16.88
2017-05-13T01:03:59.429Z,15.10
2017-05-13T01:06:28.495Z,18.62
2017-05-13T01:08:57.601Z,17.72
2017-05-13T01:11:27.383Z,16.06
2017-05-13T01:13:56.469Z,15.94
2017-05-13T01:16:25.567Z,18.34
2017-05-13T01:18:54.621Z,16.60
2017-05-13T01:21:24.443Z,17.38
2017-05-13T01:23:53.509Z,18.10
2017-05-13T01:26:22.588Z,18.56
2017-05-13T01:28:51.654Z,19.16
2017-05-13T01:31:20.787Z,16.64
2017-05-13T01:33:49.868Z,18.12
2017-05-13T01:36:18.900Z,20.66
2017-05-13T01:38:49.027Z,15.82
2017-05-13T01:41:18.080Z,17.86
2017-05-13T01:43:47.429Z,15.40
2017-05-13T01:46:16.472Z,14.66
2017-05-13T01:48:45.551Z,14.76
2017-05-13T01:51:14.655Z,15.38
2017-05-13T01:53:43.695Z,17.52
2017-05-13T01:56:13.832Z,17.82
2017-05-13T01:58:43.132Z,17.98
2017-05-13T02:01:12.259Z,17.92
2017-05-13T02:03:41.306Z,17.98
2017-05-13T02:06:11.438Z,17.62
2017-05-13T02:08:40.491Z,16.76
2017-05-13T02:11:09.605Z,15.80
2017-05-13T02:13:38.648Z,15.38
2017-05-13T02:16:07.727Z,17.16
2017-05-13T02:18:36.802Z,18.38
2017-05-13T02:21:06.600Z,17.68
2017-05-13T02:23:35.688Z,15.74
2017-05-13T02:26:04.741Z,18.54
2017-05-13T02:28:33.849Z,19.34
2017-05-13T02:31:02.921Z,16.82
2017-05-13T02:33:31.955Z,18.10
2017-05-13T02:36:01.031Z,17.72
2017-05-13T02:38:30.081Z,18.30
2017-05-13T02:40:59.909Z,17.58
2017-05-13T02:43:29.687Z,16.28
2017-05-13T02:45:58.769Z,17.04
2017-05-13T02:48:27.860Z,16.72
2017-05-13T02:50:56.900Z,18.26
2017-05-13T02:53:26.712Z,17.60
2017-05-13T02:55:56.570Z,22.28
2017-05-13T02:58:25.617Z,16.22
2017-05-13T03:00:55.455Z,16.86
2017-05-13T03:03:24.494Z,17.24
2017-05-13T03:05:53.573Z,16.68
2017-05-13T03:08:22.629Z,17.22
2017-05-13T03:10:52.446Z,16.26
2017-05-13T03:13:21.493Z,17.32
2017-05-13T03:15:50.558Z,18.68
2017-05-13T03:18:19.653Z,19.24
2017-05-13T03:20:48.935Z,16.90
2017-05-13T03:23:18.031Z,17.50
2017-05-13T03:25:47.079Z,17.40
2017-05-13T03:28:16.383Z,18.42
2017-05-13T03:30:45.461Z,16.98
2017-05-13T03:33:14.507Z,17.12
2017-05-13T03:35:44.328Z,16.72
2017-05-13T03:38:13.632Z,16.04
2017-05-13T03:40:42.729Z,16.06
2017-05-13T03:43:12.131Z,16.48
2017-05-13T03:45:41.432Z,15.38
2017-05-13T03:48:10.520Z,16.66
2017-05-13T03:50:40.313Z,17.22
2017-05-13T03:53:09.449Z,17.98
2017-05-13T03:55:38.514Z,15.86
2017-05-13T03:58:08.325Z,17.04
2017-05-13T04:00:38.147Z,25.96
2017-05-13T04:03:07.927Z,21.46
2017-05-13T04:05:37.016Z,20.48
2017-05-13T04:08:06.052Z,18.06
2017-05-13T04:10:35.876Z,17.32
2017-05-13T04:13:04.926Z,19.16
2017-05-13T04:15:34.002Z,19.22
2017-05-13T04:18:03.052Z,18.74
2017-05-13T04:20:32.875Z,18.90
2017-05-13T04:23:01.928Z,18.78
2017-05-13T04:25:31.003Z,19.44
2017-05-13T04:28:00.128Z,20.42
2017-05-13T04:30:29.199Z,20.44
2017-05-13T04:32:58.256Z,21.34
2017-05-13T04:35:27.328Z,19.40
2017-05-13T04:37:57.231Z,19.76
2017-05-13T04:40:26.279Z,19.20
2017-05-13T04:42:55.346Z,16.60
2017-05-13T04:45:25.470Z,18.10
2017-05-13T04:47:54.528Z,18.56
2017-05-13T04:50:23.599Z,19.92
2017-05-13T04:52:52.701Z,19.96
2017-05-13T04:55:21.755Z,20.06
2017-05-13T04:57:50.855Z,21.64
2017-05-13T05:00:19.948Z,19.80
2017-05-13T05:02:48.983Z,23.28
2017-05-13T05:05:18.053Z,22.58
2017-05-13T05:07:47.127Z,22.38
2017-05-13T05:10:16.898Z,21.48
2017-05-13T05:12:45.988Z,19.90
2017-05-13T05:15:15.030Z,21.82
2017-05-13T05:17:44.839Z,19.58
2017-05-13T05:20:14.659Z,21.18
2017-05-13T05:22:43.699Z,20.54
2017-05-13T05:25:12.784Z,23.10
2017-05-13T05:27:41.878Z,22.72
2017-05-13T05:30:10.917Z,21.40
2017-05-13T05:32:40.243Z,23.98
2017-05-13T05:35:09.325Z,21.14
2017-05-13T05:37:39.120Z,20.94
2017-05-13T05:40:08.198Z,23.20
2017-05-13T05:42:37.244Z,25.56
2017-05-13T05:45:06.317Z,23.56
2017-05-13T05:47:35.748Z,23.78
2017-05-13T05:50:04.784Z,22.78
2017-05-13T05:52:33.874Z,24.58
2017-05-13T05:55:02.923Z,23.64
2017-05-13T05:57:32.739Z,25.38
2017-05-13T06:00:01.788Z,25.60
2017-05-13T06:02:30.868Z,22.98
2017-05-13T06:04:59.915Z,23.66
2017-05-13T06:07:29.739Z,26.06
2017-05-13T06:09:58.781Z,22.32
2017-05-13T06:12:27.860Z,22.90
2017-05-13T06:14:56.944Z,23.10
2017-05-13T06:17:25.979Z,23.76
2017-05-13T06:19:55.074Z,24.48
2017-05-13T06:22:24.126Z,21.40
2017-05-13T06:24:53.204Z,23.70
2017-05-13T06:27:23.346Z,24.80
2017-05-13T06:29:52.383Z,25.78
2017-05-13T06:32:21.473Z,25.44
2017-05-13T06:34:50.556Z,24.02
2017-05-13T06:37:19.919Z,25.80
2017-05-13T06:39:49.011Z,24.84
2017-05-13T06:42:18.055Z,25.18
2017-05-13T06:44:47.156Z,24.20
2017-05-13T06:47:16.203Z,29.56
2017-05-13T06:49:45.274Z,28.68
2017-05-13T06:52:15.091Z,25.98
2017-05-13T06:54:44.883Z,26.96
2017-05-13T06:57:13.958Z,29.40
2017-05-13T06:59:43.012Z,27.26
2017-05-13T07:02:12.107Z,25.84
2017-05-13T07:04:41.176Z,27.34
2017-05-13T07:07:10.264Z,27.98
2017-05-13T07:09:39.320Z,28.84
2017-05-13T07:12:08.404Z,27.00
2017-05-13T07:14:37.486Z,27.64
2017-05-13T07:17:06.532Z,31.02
2017-05-13T07:19:35.616Z,30.14
2017-05-13T07:22:04.703Z,30.60
2017-05-13T07:24:34.075Z,30.60
2017-05-13T07:27:03.179Z,30.76
2017-05-13T07:29:32.234Z,27.72
2017-05-13T07:32:01.308Z,31.78
2017-05-13T07:34:30.375Z,29.80
2017-05-13T07:36:59.422Z,29.64
2017-05-13T07:39:28.512Z,33.10
2017-05-13T07:41:57.557Z,29.14
2017-05-13T07:44:26.637Z,28.30
2017-05-13T07:46:56.572Z,28.02
2017-05-13T07:49:27.138Z,26.50
2017-05-13T07:51:56.230Z,28.16
2017-05-13T07:54:25.588Z,26.50
2017-05-13T07:56:54.664Z,32.12
2017-05-13T07:59:24.453Z,25.14
2017-05-13T08:01:53.545Z,31.50
2017-05-13T08:04:22.574Z,26.94
2017-05-13T08:06:51.680Z,24.54
2017-05-13T08:09:20.724Z,32.30
2017-05-13T08:11:49.808Z,33.44
2017-05-13T08:14:18.899Z,33.28
2017-05-13T08:16:48.020Z,32.26
2017-05-13T08:19:17.124Z,32.72
2017-05-13T08:21:46.169Z,42.12
2017-05-13T08:24:15.336Z,34.66
2017-05-13T08:26:45.122Z,30.58
2017-05-13T08:29:14.218Z,54.26
2017-05-13T08:31:43.267Z,35.26
2017-05-13T08:34:12.563Z,36.44
2017-05-13T08:36:41.657Z,30.92
2017-05-13T08:39:10.711Z,37.02
2017-05-13T08:41:39.801Z,34.40
2017-05-13T08:44:08.879Z,30.06
2017-05-13T08:46:37.927Z,33.48
2017-05-13T08:49:07.027Z,32.24
2017-05-13T08:51:36.124Z,27.74
2017-05-13T08:54:05.195Z,34.02
2017-05-13T08:56:34.282Z,35.00
2017-05-13T08:59:03.343Z,32.88
2017-05-13T09:01:32.439Z,41.66
2017-05-13T09:04:01.545Z,40.38
2017-05-13T09:06:30.598Z,36.08
2017-05-13T09:09:00.439Z,36.92
2017-05-13T09:11:29.956Z,35.86
2017-05-13T09:13:59.123Z,30.94
2017-05-13T09:16:28.185Z,35.10
2017-05-13T09:18:57.276Z,36.62
2017-05-13T09:21:26.355Z,33.54
2017-05-13T09:23:55.394Z,36.94
2017-05-13T09:26:24.500Z,35.72
2017-05-13T09:28:53.542Z,35.42
2017-05-13T09:31:22.622Z,35.40
2017-05-13T09:33:51.683Z,36.04
2017-05-13T09:36:20.771Z,37.32
2017-05-13T09:38:50.899Z,38.72
2017-05-13T09:41:20.199Z,38.28
2017-05-13T09:43:49.280Z,36.86
2017-05-13T09:46:19.076Z,39.26
2017-05-13T09:48:48.159Z,39.66
2017-05-13T09:51:17.203Z,34.60
2017-05-13T09:53:46.275Z,36.50
2017-05-13T09:56:16.091Z,36.64
2017-05-13T09:58:45.885Z,38.90
2017-05-13T10:01:16.043Z,36.68
2017-05-13T10:03:45.101Z,36.28
2017-05-13T10:06:14.206Z,43.32
2017-05-13T10:08:43.263Z,38.74
2017-05-13T10:11:12.337Z,48.08
2017-05-13T10:13:41.427Z,40.86
2017-05-13T10:16:10.474Z,37.66
2017-05-13T10:18:39.551Z,40.98
2017-05-13T10:21:08.657Z,39.74
2017-05-13T10:23:37.703Z,38.78
2017-05-13T10:26:06.790Z,39.20
2017-05-13T10:28:36.596Z,40.56
2017-05-13T10:31:06.385Z,42.94
2017-05-13T10:33:35.501Z,40.68
2017-05-13T10:36:05.288Z,40.28
2017-05-13T10:38:34.385Z,46.74
2017-05-13T10:41:03.428Z,64.84
2017-05-13T10:43:32.490Z,49.70
2017-05-13T10:46:02.285Z,40.76
2017-05-13T10:48:31.372Z,35.82
2017-05-13T10:51:00.410Z,36.62
2017-05-13T10:53:30.254Z,46.00
2017-05-13T10:55:59.301Z,36.64
2017-05-13T10:58:28.416Z,31.60
2017-05-13T11:00:58.244Z,34.62
2017-05-13T11:03:27.287Z,33.82
2017-05-13T11:05:56.368Z,32.08
2017-05-13T11:08:25.735Z,34.32
2017-05-13T11:10:55.031Z,37.34
2017-05-13T11:13:24.132Z,34.94
2017-05-13T11:15:53.185Z,30.62
2017-05-13T11:18:22.264Z,36.54
2017-05-13T11:20:51.348Z,32.74
2017-05-13T11:23:20.392Z,31.80
2017-05-13T11:25:50.232Z,31.94
2017-05-13T11:28:19.278Z,32.10
2017-05-13T11:30:48.358Z,29.54
2017-05-13T11:33:17.457Z,32.98
2017-05-13T11:35:46.532Z,32.28
2017-05-13T11:38:15.626Z,28.80
2017-05-13T11:40:44.668Z,30.02
2017-05-13T11:43:13.734Z,30.22
2017-05-13T11:45:42.823Z,31.34
2017-05-13T11:48:11.874Z,32.58
2017-05-13T11:50:41.687Z,30.08
2017-05-13T11:53:11.466Z,31.98
2017-05-13T11:55:40.810Z,35.22
2017-05-13T11:58:09.850Z,31.52
2017-05-13T12:00:38.953Z,25.54
2017-05-13T12:03:07.999Z,30.48
2017-05-13T12:05:37.067Z,28.28
2017-05-13T12:08:06.155Z,26.42
2017-05-13T12:10:35.490Z,29.12
2017-05-13T12:13:04.598Z,35.78
2017-05-13T12:15:33.643Z,24.74
2017-05-13T12:18:02.711Z,26.32
2017-05-13T12:20:31.791Z,29.62
2017-05-13T12:23:00.839Z,32.88
2017-05-13T12:25:29.934Z,26.78
2017-05-13T12:27:59.267Z,25.70
2017-05-13T12:30:28.368Z,24.88
2017-05-13T12:32:57.765Z,25.18
2017-05-13T12:35:26.803Z,28.42
2017-05-13T12:37:56.163Z,30.92
2017-05-13T12:40:25.198Z,24.00
2017-05-13T12:42:54.276Z,25.40
2017-05-13T12:45:23.393Z,29.08
2017-05-13T12:47:52.433Z,27.44
2017-05-13T12:50:22.255Z,29.84
2017-05-13T12:52:51.559Z,25.80
2017-05-13T12:55:20.632Z,26.14
2017-05-13T12:57:50.421Z,25.74
2017-05-13T13:00:19.499Z,25.24
2017-05-13T13:02:49.244Z,22.68
2017-05-13T13:05:18.323Z,22.34
2017-05-13T13:07:47.367Z,23.84
2017-05-13T13:10:16.668Z,25.34
2017-05-13T13:12:45.714Z,25.02
2017-05-13T13:15:14.800Z,21.28
2017-05-13T13:17:43.842Z,18.62
2017-05-13T13:20:13.669Z,26.10
2017-05-13T13:22:43.157Z,24.94
2017-05-13T13:25:12.987Z,25.00
2017-05-13T13:27:42.027Z,17.70
2017-05-13T13:30:11.114Z,20.00
2017-05-13T13:32:40.205Z,17.04
2017-05-13T13:35:09.256Z,15.82
2017-05-13T13:37:39.048Z,16.20
2017-05-13T13:40:08.387Z,15.38
2017-05-13T13:42:37.435Z,13.12
2017-05-13T13:45:06.507Z,10.46
2017-05-13T13:47:35.607Z,12.98
2017-05-13T13:50:04.967Z,20.28
2017-05-13T13:52:34.072Z,12.86
2017-05-13T13:55:03.116Z,14.08
2017-05-13T13:57:32.212Z,11.64
2017-05-13T14:00:01.252Z,10.20
2017-05-13T14:02:30.351Z,12.60
2017-05-13T14:04:59.439Z,10.92
2017-05-13T14:07:28.480Z,11.22
2017-05-13T14:09:57.564Z,10.40
2017-05-13T14:12:26.658Z,8.78
2017-05-13T14:14:55.686Z,10.84
2017-05-13T14:17:24.779Z,10.40
2017-05-13T14:19:53.844Z,9.52
2017-05-13T14:22:22.928Z,8.48
2017-05-13T14:24:52.292Z,10.60
2017-05-13T14:27:22.072Z,11.56
2017-05-13T14:29:51.141Z,12.36
2017-05-13T14:32:20.187Z,11.20
2017-05-13T14:34:49.263Z,10.02
2017-05-13T14:37:18.306Z,15.32
2017-05-13T14:39:47.707Z,9.50
2017-05-13T14:42:16.809Z,11.70
2017-05-13T14:44:45.866Z,12.90
2017-05-13T14:47:14.947Z,9.38
2017-05-13T14:49:43.988Z,10.82
2017-05-13T14:52:13.051Z,11.76
2017-05-13T14:54:42.136Z,10.64
2017-05-13T14:57:11.576Z,12.60
2017-05-13T14:59:41.384Z,11.38
2017-05-13T15:02:11.198Z,10.88
2017-05-13T15:04:41.231Z,11.08
2017-05-13T15:07:10.333Z,9.76
2017-05-13T15:09:39.375Z,10.12
2017-05-13T15:12:08.828Z,11.08
2017-05-13T15:14:37.866Z,15.32
2017-05-13T15:17:06.966Z,10.60
2017-05-13T15:19:36.024Z,17.86
2017-05-13T15:22:05.095Z,10.62
2017-05-13T15:24:35.128Z,10.52
2017-05-13T15:27:04.208Z,12.68
2017-05-13T15:29:33.997Z,9.96
2017-05-13T15:32:03.080Z,11.38
2017-05-13T15:34:32.132Z,16.58
2017-05-13T15:37:01.227Z,11.74
2017-05-13T15:39:30.311Z,10.90
2017-05-13T15:42:00.100Z,11.64
2017-05-13T15:44:29.217Z,13.18
2017-05-13T15:46:59.007Z,12.12
2017-05-13T15:49:28.100Z,14.82
2017-05-13T15:51:57.140Z,15.54
2017-05-13T15:54:26.243Z,14.48
2017-05-13T15:56:55.290Z,13.94
2017-05-13T15:59:24.354Z,14.58
2017-05-13T16:01:53.438Z,13.60
2017-05-13T16:04:22.817Z,13.52
2017-05-13T16:06:51.888Z,12.24
2017-05-13T16:09:21.666Z,12.72
2017-05-13T16:11:50.765Z,10.68
2017-05-13T16:14:19.803Z,11.04
2017-05-13T16:16:49.649Z,10.82
2017-05-13T16:19:18.692Z,10.78
2017-05-13T16:21:48.023Z,11.60
2017-05-13T16:24:17.128Z,11.98
2017-05-13T16:26:46.185Z,10.88
2017-05-13T16:29:15.515Z,12.04
2017-05-13T16:31:44.594Z,12.80
2017-05-13T16:34:14.371Z,11.94
2017-05-13T16:36:43.723Z,11.74
2017-05-13T16:39:12.771Z,12.50
2017-05-13T16:41:42.122Z,12.66
2017-05-13T16:44:11.208Z,10.52
2017-05-13T16:46:40.998Z,11.24
2017-05-13T16:49:10.092Z,11.34
2017-05-13T16:51:39.147Z,11.72
2017-05-13T16:54:08.224Z,9.76
2017-05-13T16:56:37.309Z,9.76
2017-05-13T16:59:07.105Z,13.14
2017-05-13T17:01:36.196Z,10.46
2017-05-13T17:04:05.524Z,9.32
2017-05-13T17:06:34.590Z,11.18
2017-05-13T17:09:04.026Z,10.12
2017-05-13T17:11:33.112Z,13.22
2017-05-13T17:14:02.923Z,12.72
2017-05-13T17:16:32.740Z,13.80
2017-05-13T17:19:02.527Z,13.22
2017-05-13T17:21:31.630Z,12.94
2017-05-13T17:24:00.955Z,11.06
2017-05-13T17:26:30.359Z,13.50
2017-05-13T17:28:59.763Z,14.82
2017-05-13T17:31:28.836Z,13.68
2017-05-13T17:33:58.655Z,14.96
2017-05-13T17:36:28.444Z,15.34
2017-05-13T17:38:57.552Z,14.36
2017-05-13T17:41:26.823Z,12.92
2017-05-13T17:43:55.923Z,19.16
2017-05-13T17:46:24.971Z,13.66
2017-05-13T17:48:54.072Z,20.96
2017-05-13T17:51:23.178Z,13.96
2017-05-13T17:53:52.243Z,20.40
2017-05-13T17:56:22.381Z,16.90
2017-05-13T17:58:51.428Z,15.22
2017-05-13T18:01:20.578Z,14.20
2017-05-13T18:03:49.628Z,14.70
2017-05-13T18:06:18.717Z,17.56
2017-05-13T18:08:47.803Z,15.34
2017-05-13T18:11:16.857Z,14.44
2017-05-13T18:13:45.947Z,15.24
2017-05-13T18:16:15.732Z,15.04
2017-05-13T18:18:44.798Z,15.84
2017-05-13T18:21:13.889Z,16.90
2017-05-13T18:23:43.156Z,18.98
2017-05-13T18:26:12.235Z,19.76
2017-05-13T18:28:42.019Z,16.80
2017-05-13T18:31:11.125Z,22.60
2017-05-13T18:33:40.180Z,25.74
2017-05-13T18:36:09.274Z,25.10
2017-05-13T18:38:39.068Z,23.34
2017-05-13T18:41:08.160Z,21.70
2017-05-13T18:43:37.201Z,19.60
2017-05-13T18:46:06.273Z,21.90
2017-05-13T18:48:35.314Z,23.66
2017-05-13T18:51:04.419Z,22.58
2017-05-13T18:53:33.549Z,24.44
2017-05-13T18:56:02.642Z,23.88
2017-05-13T18:58:32.531Z,22.02
2017-05-13T19:01:02.344Z,21.22
2017-05-13T19:03:32.172Z,19.24
2017-05-13T19:06:01.217Z,21.12
2017-05-13T19:08:30.308Z,20.90
2017-05-13T19:10:59.354Z,18.76
2017-05-13T19:13:29.172Z,21.80
2017-05-13T19:15:58.479Z,18.30
2017-05-13T19:18:27.522Z,19.40
2017-05-13T19:20:56.623Z,20.56
2017-05-13T19:23:25.664Z,20.70
2017-05-13T19:25:54.768Z,21.04
2017-05-13T19:28:23.821Z,19.26
2017-05-13T19:30:52.907Z,22.06
2017-05-13T19:33:21.963Z,20.32
2017-05-13T19:35:51.040Z,22.16
2017-05-13T19:38:20.079Z,19.54
2017-05-13T19:40:49.162Z,21.02
2017-05-13T19:43:18.212Z,22.92
2017-05-13T19:45:48.019Z,22.48
2017-05-13T19:48:17.848Z,27.46
2017-05-13T19:50:46.912Z,26.92
2017-05-13T19:53:15.989Z,28.42
2017-05-13T19:55:45.844Z,28.48
2017-05-13T19:58:15.763Z,30.68
2017-05-13T20:00:45.170Z,28.16
2017-05-13T20:03:14.279Z,28.14
2017-05-13T20:05:43.349Z,28.82
2017-05-13T20:08:13.180Z,30.44
2017-05-13T20:10:42.480Z,30.06
2017-05-13T20:13:11.563Z,31.88
2017-05-13T20:15:41.343Z,32.06
2017-05-13T20:18:10.419Z,30.50
2017-05-13T20:20:39.499Z,27.74
2017-05-13T20:23:08.561Z,32.30
2017-05-13T20:25:38.396Z,29.20
2017-05-13T20:28:07.448Z,28.82
2017-05-13T20:30:36.532Z,27.62
2017-05-13T20:33:05.652Z,28.12
2017-05-13T20:35:35.438Z,31.26
2017-05-13T20:38:04.595Z,29.10
2017-05-13T20:40:33.640Z,30.38
2017-05-13T20:43:02.719Z,27.88
2017-05-13T20:45:31.997Z,31.20
2017-05-13T20:48:01.034Z,32.72
2017-05-13T20:50:30.107Z,31.18
2017-05-13T20:52:59.467Z,32.06
2017-05-13T20:55:28.510Z,30.06
2017-05-13T20:57:57.580Z,30.66
2017-05-13T21:00:26.623Z,29.14
2017-05-13T21:02:55.711Z,32.94
2017-05-13T21:05:24.745Z,29.22
2017-05-13T21:07:53.848Z,26.56
2017-05-13T21:10:22.892Z,23.52
2017-05-13T21:12:51.992Z,25.86
2017-05-13T21:15:21.045Z,28.08
2017-05-13T21:17:50.118Z,27.08
2017-05-13T21:20:19.207Z,28.02
2017-05-13T21:22:49.664Z,29.98
2017-05-13T21:25:18.756Z,30.88
2017-05-13T21:27:47.799Z,29.72
2017-05-13T21:30:16.895Z,31.92
2017-05-13T21:32:45.939Z,32.90
2017-05-13T21:35:15.015Z,34.40
2017-05-13T21:37:50.551Z,31.24
2017-05-13T21:40:20.392Z,27.66
2017-05-13T21:42:49.427Z,27.64
2017-05-13T21:45:18.507Z,30.26
2017-05-13T21:47:47.601Z,31.26
2017-05-13T21:50:16.673Z,32.82
2017-05-13T21:52:45.810Z,28.88
2017-05-13T21:55:14.859Z,29.52
2017-05-13T21:57:43.971Z,31.16
2017-05-13T22:00:13.040Z,33.40
2017-05-13T22:02:42.855Z,31.54
2017-05-13T22:05:11.959Z,31.80
2017-05-13T22:07:41.027Z,31.30
2017-05-13T22:10:10.112Z,34.86
2017-05-13T22:12:39.452Z,36.00
2017-05-13T22:15:08.856Z,33.78
2017-05-13T22:17:37.930Z,32.56
2017-05-13T22:20:07.972Z,31.96
2017-05-13T22:22:37.047Z,32.86
2017-05-13T22:25:06.921Z,32.08
2017-05-13T22:27:35.933Z,31.12
2017-05-13T22:30:05.016Z,32.48
2017-05-13T22:32:34.051Z,29.86
2017-05-13T22:35:03.875Z,29.90
2017-05-13T22:37:33.279Z,30.06
2017-05-13T22:40:02.372Z,34.08
2017-05-13T22:42:32.156Z,33.44
2017-05-13T22:45:01.243Z,35.50
2017-05-13T22:47:30.297Z,36.90
2017-05-13T22:49:59.365Z,33.36
2017-05-13T22:52:29.182Z,35.88
2017-05-13T22:54:58.964Z,36.94
2017-05-13T22:57:28.042Z,35.68
2017-05-13T22:59:57.097Z,36.96
2017-05-13T23:02:26.192Z,38.20
2017-05-13T23:04:55.226Z,38.42
2017-05-13T23:07:24.303Z,34.82
2017-05-13T23:09:53.391Z,39.32
2017-05-13T23:12:22.436Z,37.14
2017-05-13T23:14:51.509Z,40.30
2017-05-13T23:17:20.866Z,36.76
2017-05-13T23:19:49.907Z,36.78
2017-05-13T23:22:19.263Z,36.94
2017-05-13T23:24:48.342Z,38.42
2017-05-13T23:27:17.405Z,40.68
2017-05-13T23:29:46.435Z,42.00
2017-05-13T23:32:16.484Z,40.62
2017-05-13T23:34:45.536Z,38.12
2017-05-13T23:37:14.611Z,39.70
2017-05-13T23:39:43.960Z,37.98
2017-05-13T23:42:12.999Z,38.56
2017-05-13T23:44:42.083Z,42.58
2017-05-13T23:47:11.126Z,41.40
2017-05-13T23:49:40.977Z,39.26
2017-05-13T23:52:10.015Z,42.44
2017-05-13T23:54:39.086Z,41.14
2017-05-13T23:57:08.170Z,44.42
2017-05-13T23:59:37.217Z,43.04
